Airfield :
LOGIN :

Register | Disclaimer

   EN    FR    IT 

 










Legend :    VFR   Marginal VFR   IFR   Intensive IFR   Very Intensive IFR
Visi :
Ceiling :
>= 8 km
>= 3000ft
5 to 8 km
1000 to 3000 ft
1500m to 5 km
500 to 1000 ft
800 to 1500m
200 to 500 ft
< 800m
< 200 ft
Symbols :   Thunderstorms  Fog  Heavy snow  Heavy precipitations  Wind > 20 kt
SIGMETs :     Misc.  Thunderstorms  Icing  Turbulence  Mountain Waves  Volcanic Ashes






- Airport Elevation : 604 ft
- IATA code : LCJ


EPLL - Lodz

CURRENT METAR :
  • 170430Z VRB01KT CAVOK 13/11 Q1014

EXPIRED METARs :
  • 170400Z VRB01KT CAVOK 11/10 Q1014
  • 170330Z VRB01KT CAVOK 09/09 Q1014
  • 170300Z 05001KT 9999 0800E PRFG NSC 09/09 Q1014
  • 170230Z VRB01KT 9999 0300E R25/0750U PRFG NSC 09/09 Q1014
  • 170200Z 00000KT 9999 0250E R25/0400D PRFG NSC 08/08 Q1014
  • 170130Z 00000KT 9999 0600E R25/1400U PRFG NSC 09/09 Q1013
  • 170100Z 08002KT 0650 0250W R25/1700U FG NSC 09/08 Q1013
  • 170030Z 07002KT 4500 0300W BCFG BR NSC 09/09 Q1013
  • 170000Z 25003KT 1700 0250E R25/0800U BCFG BR NSC 08/08 Q1013

TAF TAF EPLL
Valid from the 17 at 00:00 until the 18 at 00:00 UTC


162330Z 1700/1724 VRB02KT 2000 BR BKN005
TEMPO 1700/1704 0800 FG BKN002
PROB40
TEMPO 1700/1704 0100 FG OVC001
BECMG 1709/1712 23010KT
PROB40
TEMPO 1713/1724 VRB15G25KT 3000 TSRA SCT045CB
BECMG 1715/1717 VRB02KT



MET'MAP, your aeronautical weather chart ! - Copyright ORBIFLY December 2007 - Disclaimer

ORBIFLY MET'MAP TEAM :

Programming & Development : Alexandra Zaïnal
Original concept : Baudouin d'Aumeries
Technical & hardware support : Manuel Goepfert
Assistance : Marc-Olivier Méhu




SOURCES & CREDITS :

   NOAA